ADDS METAR Data INFO
IDs: Format: Raw Decoded Include TAF

Data at: 0041 UTC 23 Oct 2017

K1A5 230025Z AUTO 00000KT 10SM OVC035 19/13 A3023 RMK AO2 T01870130
K1A5 230005Z AUTO 12003KT 10SM BKN036 OVC043 18/13 A3023 RMK AO2 T01840132
K1A5 222345Z AUTO 00000KT 10SM OVC040 18/14 A3023 RMK AO2 T01810135
K1A5 222325Z AUTO 00000KT 10SM OVC040 18/14 A3022 RMK AO2 T01800135
K1A5 222305Z AUTO 00000KT 10SM BKN042 BKN050 OVC055 18/14 A3023 RMK AO2 T01760139
K1A5 222245Z AUTO 00000KT 10SM SCT042 BKN048 OVC050 19/13 A3023 RMK AO2 T01900131
K1A5 222225Z AUTO 00000KT 10SM BKN042 BKN048 OVC055 19/14 A3024 RMK AO2 T01900139
K1A5 222205Z AUTO 00000KT 10SM BKN038 BKN048 OVC055 20/14 A3023 RMK AO2 T01950137
K1A5 222145Z AUTO 00000KT 10SM BKN038 BKN044 OVC050 20/13 A3023 RMK AO2 T02000132
K1A5 222125Z AUTO 00000KT 10SM SCT041 OVC050 21/13 A3024 RMK AO2 T02050130
K1A5 222105Z AUTO 00000KT 10SM SCT043 OVC050 21/13 A3024 RMK AO2 T02080128
K1A5 222045Z AUTO 00000KT 10SM SCT044 OVC050 21/13 A3023 RMK AO2 T02120131
K1A5 222025Z AUTO 00000KT 10SM OVC046 21/12 A3024 RMK AO2 T02080124
K1A5 222005Z AUTO 00000KT 10SM OVC047 21/12 A3024 RMK AO2 T02120124
K1A5 221945Z AUTO 15004KT 10SM OVC049 22/12 A3025 RMK AO2 T02160119
K1A5 221925Z AUTO 15004KT 10SM OVC049 22/12 A3025 RMK AO2 T02170121
K1A5 221905Z AUTO 00000KT 10SM OVC049 22/12 A3026 RMK AO2 T02220123
K1A5 221845Z AUTO 16004KT 10SM OVC049 21/12 A3026 RMK AO2 T02100123
K1A5 221825Z AUTO 21006KT 10SM OVC049 21/12 A3027 RMK AO2 T02100116
K1A5 221805Z AUTO 15004KT 10SM BKN049 22/12 A3027 RMK AO2 T02190119
K1A5 221745Z AUTO 18008G14KT 130V200 10SM BKN049 22/11 A3028 RMK AO2 T02220114
K1A5 221725Z AUTO 17003KT 10SM SCT049 22/12 A3028 RMK AO2 T02230119
K1A5 221705Z AUTO 17007KT 120V190 10SM BKN047 22/12 A3030 RMK AO2 T02170123
K1A5 221645Z AUTO 09005KT 10SM BKN047 21/13 A3031 RMK AO2 T02090128
K1A5 221625Z AUTO 14004KT 10SM SCT047 21/13 A3033 RMK AO2 T02050125
K1A5 221605Z AUTO 00000KT 7SM SCT045 20/12 A3033 RMK AO2 T01950122
K1A5 221545Z AUTO 07005KT 10SM BKN047 18/13 A3034 RMK AO2 T01760126
K1A5 221525Z AUTO 06004KT 10SM SCT049 16/12 A3034 RMK AO2 T01590116
K1A5 221505Z AUTO 00000KT 10SM SCT043 SCT050 14/11 A3035 RMK AO2 T01440113
K1A5 221445Z AUTO 00000KT 10SM SCT037 BKN043 13/11 A3035 RMK AO2 T01320105
K1A5 221425Z AUTO 00000KT 10SM SCT045 12/10 A3035 RMK AO2 T01190101
K1A5 221405Z AUTO 00000KT 10SM CLR 11/10 A3036 RMK AO2 T01080097
K1A5 221345Z AUTO 00000KT 10SM SCT002 SCT032 09/09 A3037 RMK AO2 T00930086
K1A5 221325Z AUTO 00000KT 3SM BR BKN002 BKN032 08/08 A3038 RMK AO2 T00830077
K1A5 221305Z AUTO 00000KT 1 3/4SM BR OVC002 08/07 A3037 RMK AO2 T00750069
K1A5 221245Z AUTO 00000KT 1/2SM FG OVC002 07/06 A3037 RMK AO2 T00670061
K1A5 221225Z AUTO 00000KT 1/4SM FG OVC002 06/06 A3037 RMK AO2 T00620056
K1A5 221205Z AUTO 00000KT M1/4SM FG OVC002 06/06 A3036 RMK AO2 T00620056
K1A5 221145Z AUTO 00000KT 1/2SM FG OVC002 06/06 A3035 RMK AO2 T00620056
K1A5 221125Z AUTO 00000KT 1/4SM FG OVC002 07/06 A3034 RMK AO2 T00650058
K1A5 221105Z AUTO 00000KT 1/4SM FG OVC002 07/06 A3035 RMK AO2 T00660060
K1A5 221045Z AUTO 00000KT 1/4SM FG OVC002 07/06 A3034 RMK AO2 T00650058
K1A5 221025Z AUTO 00000KT 1/4SM FG OVC002 06/06 A3034 RMK AO2 T00630057
K1A5 221005Z AUTO 00000KT 1/2SM FG OVC002 06/06 A3034 RMK AO2 T00630057
K1A5 220945Z AUTO 00000KT 1/4SM FG OVC002 06/06 A3034 RMK AO2 T00620056
K1A5 220925Z AUTO 00000KT 2 1/2SM BR OVC002 07/06 A3034 RMK AO2 T00650058
K1A5 220905Z AUTO 00000KT 3/4SM BR OVC002 06/06 A3034 RMK AO2 T00630057
K1A5 220845Z AUTO 00000KT 3/4SM BR OVC002 06/06 A3034 RMK AO2 T00620056
K1A5 220825Z AUTO 00000KT M1/4SM FG OVC002 06/06 A3034 RMK AO2 T00600055
K1A5 220805Z AUTO 00000KT 1/2SM FG OVC002 06/05 A3034 RMK AO2 T00570051
K1A5 220745Z AUTO 00000KT 3SM BR OVC002 06/05 A3034 RMK AO2 T00570051
K1A5 220725Z AUTO 00000KT 4SM BR BKN002 05/05 A3034 RMK AO2 T00520046
K1A5 220705Z AUTO 00000KT 7SM BKN002 05/05 A3035 RMK AO2 T00520046
K1A5 220645Z AUTO 00000KT 3SM BR SCT002 05/05 A3035 RMK AO2 T00510045
K1A5 220625Z AUTO 00000KT 5SM BR CLR 05/05 A3035 RMK AO2 T00530047
K1A5 220605Z AUTO 00000KT 1SM BR VV007 06/05 A3035 RMK AO2 T00570051
K1A5 220545Z AUTO 00000KT 2 1/2SM BR CLR 06/05 A3036 RMK AO2 T00590052
K1A5 220525Z AUTO 00000KT 10SM CLR 06/05 A3035 RMK AO2 T00610054
K1A5 220505Z AUTO 00000KT 2 1/2SM BR CLR 07/06 A3035 RMK AO2 VIS 1 1/4V5 T00660060
K1A5 220445Z AUTO 00000KT 7SM CLR 07/06 A3036 RMK AO2 T00660060
K1A5 220425Z AUTO 00000KT 7SM CLR 07/07 A3036 RMK AO2 T00720067
K1A5 220405Z AUTO 00000KT 7SM CLR 07/07 A3037 RMK AO2 T00740067
K1A5 220345Z AUTO 00000KT 10SM CLR 07/07 A3037 RMK AO2 T00720066
K1A5 220325Z AUTO 00000KT 7SM CLR 08/07 A3036 RMK AO2 T00770071
K1A5 220305Z AUTO 00000KT 10SM CLR 08/07 A3036 RMK AO2 T00770071
K1A5 220245Z AUTO 00000KT 10SM CLR 08/08 A3036 RMK AO2 T00840078
K1A5 220225Z AUTO 00000KT 10SM CLR 08/07 A3036 RMK AO2 T00800074
K1A5 220205Z AUTO 00000KT 10SM CLR 09/08 A3035 RMK AO2 T00880081
K1A5 220145Z AUTO 00000KT 10SM CLR 09/08 A3035 RMK AO2 T00850077
K1A5 220125Z AUTO 00000KT 10SM CLR 10/09 A3035 RMK AO2 T00950086
K1A5 220105Z AUTO 00000KT 10SM CLR 10/09 A3034 RMK AO2 T00970086
K1A5 220045Z AUTO 00000KT 10SM CLR 11/09 A3034 RMK AO2 T01060090
K1A5 220025Z AUTO 00000KT 10SM CLR 11/09 A3034 RMK AO2 T01130093
K1A5 220005Z AUTO 00000KT 10SM CLR 12/10 A3034 RMK AO2 T01170096
K1A5 212345Z AUTO 00000KT 10SM CLR 14/10 A3034 RMK AO2 T01350098
K1A5 212325Z AUTO 00000KT 10SM CLR 14/10 A3034 RMK AO2 T01370097
K1A5 212305Z AUTO 00000KT 10SM CLR 16/10 A3033 RMK AO2 T01550096
K1A5 212245Z AUTO 24003KT 10SM CLR 18/09 A3032 RMK AO2 T01770086
K1A5 212225Z AUTO 00000KT 10SM CLR 19/08 A3032 RMK AO2 T01860084
K1A5 212205Z AUTO 00000KT 10SM CLR 20/08 A3032 RMK AO2 T01960081
K1A5 212145Z AUTO 00000KT 10SM CLR 20/08 A3031 RMK AO2 T02020081
K1A5 212125Z AUTO 00000KT 10SM CLR 21/08 A3030 RMK AO2 T02060081
K1A5 212105Z AUTO 00000KT 10SM CLR 21/08 A3030 RMK AO2 T02110078
K1A5 212045Z AUTO 00000KT 10SM CLR 22/08 A3029 RMK AO2 T02180079
K1A5 212025Z AUTO 21003KT 10SM CLR 22/08 A3029 RMK AO2 T02190075
K1A5 212005Z AUTO 20003KT 10SM CLR 22/07 A3029 RMK AO2 T02220070
K1A5 211945Z AUTO 00000KT 10SM CLR 23/08 A3029 RMK AO2 T02300077
K1A5 211925Z AUTO 16004KT 10SM CLR 23/06 A3029 RMK AO2 T02300063
K1A5 211905Z AUTO 13004KT 10SM CLR 23/07 A3029 RMK AO2 T02320074
K1A5 211845Z AUTO 11004KT 10SM CLR 24/07 A3030 RMK AO2 T02350066
K1A5 211825Z AUTO 17004KT 10SM CLR 24/07 A3030 RMK AO2 T02350073
K1A5 211805Z AUTO 16003KT 10SM CLR 23/08 A3031 RMK AO2 T02310075
K1A5 211745Z AUTO 23003KT 10SM CLR 23/08 A3032 RMK AO2 T02300084
K1A5 211725Z AUTO 00000KT 10SM CLR 22/09 A3033 RMK AO2 T02180091
K1A5 211705Z AUTO 06003KT 10SM CLR 21/09 A3034 RMK AO2 T02070092
K1A5 211645Z AUTO 00000KT 10SM CLR 20/09 A3035 RMK AO2 T01960091
K1A5 211625Z AUTO 00000KT 10SM CLR 19/09 A3035 RMK AO2 T01890094
K1A5 211605Z AUTO 00000KT 10SM CLR 18/08 A3036 RMK AO2 T01770082
K1A5 211545Z AUTO 00000KT 10SM CLR 15/10 A3037 RMK AO2 T01520096
K1A5 211525Z AUTO 00000KT 10SM CLR 14/10 A3037 RMK AO2 T01400098
K1A5 211505Z AUTO 00000KT 10SM CLR 13/10 A3038 RMK AO2 T01290098
K1A5 211445Z AUTO 00000KT 10SM CLR 12/09 A3038 RMK AO2 T01150093
K1A5 211425Z AUTO 00000KT 10SM SCT002 10/09 A3038 RMK AO2 T01030091
K1A5 211405Z AUTO 00000KT 10SM BKN002 09/08 A3039 RMK AO2 T00890083
K1A5 211345Z AUTO 00000KT 10SM BKN002 08/07 A3039 RMK AO2 T00750069
K1A5 211325Z AUTO 00000KT 1 1/4SM BR OVC002 07/06 A3039 RMK AO2 T00650059
K1A5 211305Z AUTO 00000KT 1/2SM FG OVC002 06/05 A3039 RMK AO2 T00560050
K1A5 211245Z AUTO 00000KT 3SM BR OVC002 05/05 A3038 RMK AO2 T00540047